Time;durP1;ratioP1;P1;durP2;ratioP2;P2;SDS_P1;SDS_P2;PMS_P1;PMS_P2;Temp;Humidity;BMP_temperature;BMP_pressure;BME280_temperature;BME280_humidity;BME280_pressure;Samples;Min_cycle;Max_cycle;Signal;HPM_P1;HPM_P2
2022/07/25 00:01:12;;;;;;;9.73;5.28;;;;;;;22.82;58.82;100963.13;5041402;28;20017;-36
2022/07/25 00:03:38;;;;;;;7.78;4.80;;;;;;;22.78;58.71;100967.47;5023576;28;20033;-34
2022/07/25 00:06:03;;;;;;;7.38;4.88;;;;;;;22.75;59.15;100957.84;5040751;28;20040;-34
2022/07/25 00:08:28;;;;;;;7.03;4.22;;;;;;;22.72;59.72;100960.28;5040303;28;20449;-34
2022/07/25 00:10:54;;;;;;;7.25;5.13;;;;;;;22.68;59.19;100956.41;5043966;28;20097;-35
2022/07/25 00:13:19;;;;;;;8.02;4.60;;;;;;;22.69;59.03;100952.56;5046385;28;20021;-35
2022/07/25 00:15:44;;;;;;;10.15;4.78;;;;;;;22.72;59.42;100955.63;5047610;28;20040;-36
2022/07/25 00:18:10;;;;;;;10.68;5.22;;;;;;;22.73;59.27;100948.22;5048099;28;20036;-35
2022/07/25 00:20:35;;;;;;;7.45;4.63;;;;;;;22.74;59.88;100945.22;5047223;28;20029;-35
2022/07/25 00:23:00;;;;;;;10.38;5.05;;;;;;;22.73;59.88;100937.25;5047020;28;20033;-37
2022/07/25 00:25:26;;;;;;;8.75;4.68;;;;;;;22.74;59.78;100928.75;5047124;28;20053;-35
2022/07/25 00:27:51;;;;;;;7.18;4.63;;;;;;;22.76;59.38;100937.56;5047611;28;20033;-36
2022/07/25 00:30:16;;;;;;;6.95;4.60;;;;;;;22.73;58.94;100931.78;5047433;28;20022;-37
2022/07/25 00:32:42;;;;;;;6.95;4.55;;;;;;;22.68;58.59;100931.72;5046836;28;20017;-36
2022/07/25 00:35:07;;;;;;;14.38;5.28;;;;;;;22.65;58.05;100930.31;5045957;28;20501;-35
2022/07/25 00:37:33;;;;;;;6.78;4.60;;;;;;;22.66;58.04;100921.00;5044196;28;20025;-39
2022/07/25 00:39:58;;;;;;;9.05;4.50;;;;;;;22.62;57.89;100914.38;5043912;28;20067;-38
2022/07/25 00:42:23;;;;;;;11.20;4.68;;;;;;;22.56;58.38;100918.16;5043997;28;20025;-38
2022/07/25 00:44:50;;;;;;;6.75;4.38;;;;;;;22.47;59.22;100914.25;5044601;28;20025;-37
2022/07/25 00:47:15;;;;;;;6.03;4.60;;;;;;;22.45;60.31;100903.53;5045079;28;20453;-37
2022/07/25 00:49:40;;;;;;;7.22;4.43;;;;;;;22.46;60.74;100910.69;5045266;28;20040;-39
2022/07/25 00:52:06;;;;;;;8.93;5.25;;;;;;;22.46;61.02;100894.22;5044747;28;20030;-39
2022/07/25 00:54:31;;;;;;;7.32;4.80;;;;;;;22.45;61.67;100892.53;5045376;28;20033;-37
2022/07/25 00:56:57;;;;;;;8.48;5.57;;;;;;;22.45;61.64;100880.75;5045207;28;20035;-38
2022/07/25 00:59:22;;;;;;;8.82;5.00;;;;;;;22.42;62.40;100887.59;5045397;28;20108;-38
2022/07/25 01:01:48;;;;;;;9.13;4.50;;;;;;;22.43;62.52;100878.25;5045523;28;20032;-38
2022/07/25 01:04:14;;;;;;;7.85;4.53;;;;;;;22.45;62.82;100869.78;5027113;28;20036;-38
2022/07/25 01:06:39;;;;;;;7.57;4.90;;;;;;;22.47;63.04;100882.16;5045276;28;20025;-37
2022/07/25 01:09:05;;;;;;;7.63;4.47;;;;;;;22.47;62.21;100878.59;5044752;28;20036;-37
2022/07/25 01:11:31;;;;;;;8.88;5.00;;;;;;;22.46;62.12;100880.50;5044241;28;20037;-36
2022/07/25 01:13:56;;;;;;;12.00;4.60;;;;;;;22.45;62.09;100881.56;5044301;28;20033;-39
2022/07/25 01:16:21;;;;;;;5.22;4.07;;;;;;;22.42;62.18;100875.81;5026807;28;20017;-38
2022/07/25 01:18:47;;;;;;;9.05;4.57;;;;;;;22.38;62.52;100874.66;5044924;28;20029;-38
2022/07/25 01:21:13;;;;;;;8.18;4.75;;;;;;;22.32;62.70;100871.84;5046607;28;20085;-37
2022/07/25 01:23:39;;;;;;;10.60;5.22;;;;;;;22.27;63.30;100868.25;5024147;28;20023;-38
2022/07/25 01:26:04;;;;;;;7.57;5.15;;;;;;;22.23;63.13;100858.91;5043936;28;20049;-34
2022/07/25 01:28:30;;;;;;;8.30;4.47;;;;;;;22.23;63.74;100856.16;5042911;28;20083;-38
2022/07/25 01:30:55;;;;;;;7.32;4.72;;;;;;;22.20;63.81;100845.72;5025980;28;20381;-36
2022/07/25 01:33:21;;;;;;;7.75;5.07;;;;;;;22.20;64.33;100845.72;5043359;28;20040;-35
2022/07/25 01:35:47;;;;;;;7.28;4.50;;;;;;;22.18;64.52;100831.41;5042666;28;20108;-35
2022/07/25 01:38:13;;;;;;;6.97;4.50;;;;;;;22.18;64.71;100834.16;5043517;28;20041;-35
2022/07/25 01:40:39;;;;;;;9.80;5.15;;;;;;;22.23;64.35;100826.81;5025370;28;20033;-36
2022/07/25 01:43:04;;;;;;;12.60;4.90;;;;;;;22.16;64.72;100828.91;5043836;28;20503;-37
2022/07/25 01:45:30;;;;;;;10.27;4.93;;;;;;;22.10;65.56;100841.75;5043418;28;20029;-37
2022/07/25 01:47:55;;;;;;;8.23;4.95;;;;;;;22.05;65.77;100841.69;5042890;28;20033;-35
2022/07/25 01:50:20;;;;;;;10.57;5.50;;;;;;;22.03;65.63;100852.06;5043130;28;20026;-36
2022/07/25 01:52:46;;;;;;;6.57;4.38;;;;;;;22.06;66.13;100839.75;5042612;28;20041;-35
2022/07/25 01:55:11;;;;;;;8.13;4.65;;;;;;;22.11;66.14;100829.69;5043257;28;20028;-35
2022/07/25 01:57:38;;;;;;;8.15;4.57;;;;;;;22.20;65.38;100823.78;5043255;28;20025;-36
2022/07/25 02:00:06;;;;;;;6.13;4.53;;;;;;;22.17;65.54;100816.03;5043138;28;20104;-37
2022/07/25 02:02:31;;;;;;;9.10;5.53;;;;;;;22.17;65.02;100813.28;5043307;28;20040;-36
2022/07/25 02:04:56;;;;;;;6.55;5.10;;;;;;;22.11;64.92;100810.50;5041159;28;20025;-37
2022/07/25 02:07:22;;;;;;;7.82;4.90;;;;;;;22.13;65.44;100813.81;5040996;28;20108;-37
2022/07/25 02:09:47;;;;;;;6.88;4.75;;;;;;;22.13;65.44;100816.53;5023756;28;20033;-37
2022/07/25 02:12:12;;;;;;;8.43;5.20;;;;;;;22.15;65.37;100810.81;5042323;28;20484;-37
2022/07/25 02:14:38;;;;;;;6.95;5.13;;;;;;;22.11;65.19;100807.75;5024766;28;20116;-37
2022/07/25 02:17:03;;;;;;;9.05;4.85;;;;;;;22.09;65.00;100809.09;5042650;28;20122;-38
2022/07/25 02:19:29;;;;;;;8.88;5.40;;;;;;;22.08;65.38;100811.00;5042749;28;20021;-36
2022/07/25 02:21:54;;;;;;;9.38;5.43;;;;;;;22.08;65.22;100805.53;5043429;28;20053;-36
2022/07/25 02:24:19;;;;;;;7.88;5.30;;;;;;;22.10;64.98;100802.53;5042319;28;20024;-36
2022/07/25 02:26:44;;;;;;;9.27;5.00;;;;;;;22.08;64.83;100808.28;5042802;28;20040;-35
2022/07/25 02:29:10;;;;;;;12.80;4.95;;;;;;;22.03;65.35;100805.47;5042409;28;20026;-35
2022/07/25 02:31:35;;;;;;;8.60;5.47;;;;;;;22.02;65.24;100803.03;5042064;28;20029;-35
2022/07/25 02:34:01;;;;;;;7.63;5.07;;;;;;;22.03;65.59;100794.53;5081735;22;20198;-77
2022/07/25 02:36:26;;;;;;;5.97;4.95;;;;;;;22.05;65.56;100792.34;5034981;28;20480;-77
2022/07/25 02:38:52;;;;;;;9.60;5.25;;;;;;;22.08;65.66;100804.72;5014777;28;20052;-75
2022/07/25 02:41:18;;;;;;;6.57;4.63;;;;;;;22.05;66.05;100795.09;5015657;28;20035;-76
2022/07/25 02:43:43;;;;;;;5.70;4.40;;;;;;;22.06;65.45;100790.44;5007627;28;20543;-76
2022/07/25 02:46:08;;;;;;;8.43;5.28;;;;;;;22.02;65.88;100792.06;4999963;28;20037;-76
2022/07/25 02:48:34;;;;;;;6.72;4.60;;;;;;;22.00;66.26;100803.25;5018166;28;20553;-77
2022/07/25 02:50:59;;;;;;;10.20;4.68;;;;;;;21.93;66.35;100799.91;5022291;28;20038;-77
2022/07/25 02:53:25;;;;;;;6.85;4.97;;;;;;;21.88;65.39;100799.84;5038953;28;20059;-77
2022/07/25 02:55:51;;;;;;;9.43;4.75;;;;;;;21.87;65.15;100803.69;5042985;28;20032;-77
2022/07/25 02:58:16;;;;;;;9.85;5.18;;;;;;;21.81;63.47;100794.59;5059089;28;20032;-77
2022/07/25 03:00:42;;;;;;;6.88;4.60;;;;;;;21.85;63.94;100798.47;5034861;28;20031;-77
2022/07/25 03:03:07;;;;;;;10.18;5.38;;;;;;;21.88;64.00;100794.38;5018307;28;20456;-76
2022/07/25 03:05:32;;;;;;;9.15;6.65;;;;;;;21.90;63.31;100786.72;5039603;28;20440;-77
2022/07/25 03:07:58;;;;;;;11.63;6.20;;;;;;;21.90;63.62;100792.19;5020979;28;20036;-77
2022/07/25 03:10:23;;;;;;;17.23;6.75;;;;;;;21.89;63.84;100787.81;5018019;28;20029;-78
2022/07/25 03:12:49;;;;;;;13.82;7.57;;;;;;;21.86;63.15;100782.84;5018040;28;20041;-79
2022/07/25 03:15:15;;;;;;;11.93;7.30;;;;;;;21.87;63.26;100787.25;5035452;28;20049;-78
2022/07/25 03:17:41;;;;;;;14.50;7.07;;;;;;;21.86;62.40;100788.34;5052142;28;20036;-77
2022/07/25 03:20:07;;;;;;;12.32;6.68;;;;;;;21.90;62.75;100781.25;5034923;28;20476;-77
2022/07/25 03:22:34;;;;;;;14.02;6.25;;;;;;;21.88;62.50;100788.88;5020213;28;20120;-78
2022/07/25 03:24:59;;;;;;;11.67;6.33;;;;;;;21.86;62.05;100783.69;5033963;28;20154;-77
2022/07/25 03:27:28;;;;;;;10.25;5.60;;;;;;;21.85;61.74;100783.94;5017243;28;20305;-77
2022/07/25 03:29:53;;;;;;;13.57;5.97;;;;;;;21.88;61.68;100777.94;5017147;28;20119;-76
2022/07/25 03:32:19;;;;;;;11.77;5.70;;;;;;;21.92;61.93;100773.59;5017512;28;20075;-76
2022/07/25 03:34:47;;;;;;;12.75;5.80;;;;;;;21.96;61.67;100774.75;5033367;28;20056;-78
2022/07/25 03:37:12;;;;;;;10.52;5.22;;;;;;;21.95;61.55;100777.72;5051698;28;20070;-78
2022/07/25 03:39:37;;;;;;;7.78;4.93;;;;;;;21.88;61.59;100778.78;5051542;28;20435;-76
2022/07/25 03:42:03;;;;;;;14.75;5.22;;;;;;;21.87;61.76;100777.09;5033544;28;20415;-77
2022/07/25 03:44:28;;;;;;;13.65;5.50;;;;;;;21.88;62.00;100778.78;5014088;28;20034;-76
2022/07/25 03:46:55;;;;;;;9.15;4.88;;;;;;;21.87;62.10;100789.97;5031214;28;20389;-77
2022/07/25 03:49:20;;;;;;;10.32;4.07;;;;;;;21.82;61.84;100792.66;5014108;28;20393;-77
2022/07/25 03:51:45;;;;;;;7.70;4.18;;;;;;;21.81;62.09;100789.09;5013623;28;20021;-77
2022/07/25 03:54:14;;;;;;;13.80;4.68;;;;;;;21.79;62.13;100784.97;5032369;28;20029;-77
2022/07/25 03:56:45;;;;;;;10.75;4.25;;;;;;;21.76;62.72;100788.22;5013134;28;20037;-77
2022/07/25 03:59:12;;;;;;;7.47;4.13;;;;;;;21.80;62.99;100781.97;5013515;28;20369;-77
2022/07/25 04:01:40;;;;;;;7.35;3.92;;;;;;;21.80;62.60;100781.13;5013553;28;20029;-77
2022/07/25 04:04:06;;;;;;;8.05;3.85;;;;;;;21.81;62.84;100777.31;5014224;28;20017;-77
2022/07/25 04:06:32;;;;;;;7.00;3.90;;;;;;;21.78;62.73;100766.88;5031347;28;20033;-78
2022/07/25 04:08:58;;;;;;;9.52;3.60;;;;;;;21.77;63.27;100765.22;5031952;28;20026;-77
2022/07/25 04:11:23;;;;;;;6.57;3.28;;;;;;;21.73;63.48;100780.53;5014317;28;20152;-77
2022/07/25 04:13:49;;;;;;;10.45;3.88;;;;;;;21.70;63.27;100774.47;5031443;28;20089;-77
2022/07/25 04:16:15;;;;;;;5.80;3.13;;;;;;;21.70;64.00;100760.78;5031312;28;20108;-77
2022/07/25 04:18:41;;;;;;;7.40;3.40;;;;;;;21.72;64.11;100767.91;5013020;28;20041;-77
2022/07/25 04:21:07;;;;;;;7.75;3.38;;;;;;;21.72;64.55;100765.16;5031153;28;20474;-77
2022/07/25 04:23:33;;;;;;;3.70;2.95;;;;;;;21.72;64.85;100767.91;5030934;28;20481;-77
2022/07/25 04:25:59;;;;;;;7.60;3.80;;;;;;;21.64;65.24;100761.81;5014562;28;20029;-77
2022/07/25 04:28:25;;;;;;;4.05;3.30;;;;;;;21.59;66.04;100758.19;5014050;28;20029;-77
2022/07/25 04:30:50;;;;;;;6.68;2.90;;;;;;;21.56;66.19;100762.25;5033320;28;20021;-76
2022/07/25 04:33:16;;;;;;;7.35;3.10;;;;;;;21.55;66.62;100757.06;5002276;28;20044;-78
2022/07/25 04:35:42;;;;;;;5.25;3.08;;;;;;;21.55;66.46;100746.09;5032781;28;20037;-77
2022/07/25 04:38:08;;;;;;;5.88;2.90;;;;;;;21.60;66.56;100743.41;5031920;28;20064;-77
2022/07/25 04:40:33;;;;;;;5.97;2.80;;;;;;;21.61;66.53;100756.00;5014292;28;20103;-77
2022/07/25 04:43:00;;;;;;;4.05;2.90;;;;;;;21.64;67.16;100756.34;5015188;28;20524;-77
2022/07/25 04:45:25;;;;;;;5.20;2.43;;;;;;;21.66;66.41;100753.31;5030698;28;20032;-77
2022/07/25 04:47:51;;;;;;;7.15;2.70;;;;;;;21.72;66.17;100751.47;5013488;28;20334;-77
2022/07/25 04:50:17;;;;;;;4.18;2.58;;;;;;;21.78;65.07;100758.66;5031149;28;20117;-77
2022/07/25 04:52:43;;;;;;;5.95;2.53;;;;;;;21.80;64.42;100751.00;5012845;28;20056;-78
2022/07/25 04:55:08;;;;;;;6.47;2.00;;;;;;;21.91;63.98;100750.03;5031016;28;20048;-78
2022/07/25 04:57:34;;;;;;;2.90;1.90;;;;;;;21.88;61.38;100753.25;5013991;28;20025;-77
2022/07/25 04:59:59;;;;;;;7.28;1.85;;;;;;;21.92;60.72;100749.75;5035283;28;20025;-77
2022/07/25 05:02:25;;;;;;;1.95;1.83;;;;;;;21.91;59.69;100756.34;5016580;28;20035;-78
2022/07/25 05:04:51;;;;;;;4.68;1.80;;;;;;;21.92;60.01;100757.16;5016651;28;20029;-78
2022/07/25 05:07:16;;;;;;;3.53;2.03;;;;;;;21.89;59.31;100763.16;5016675;28;20071;-78
2022/07/25 05:09:42;;;;;;;4.45;1.60;;;;;;;21.88;58.81;100753.25;5034854;28;20029;-77
2022/07/25 05:12:08;;;;;;;1.77;1.58;;;;;;;21.90;58.89;100759.31;5034767;28;20032;-77
2022/07/25 05:14:33;;;;;;;4.18;1.70;;;;;;;21.90;59.00;100748.34;5034308;28;20079;-78
2022/07/25 05:16:59;;;;;;;3.25;1.92;;;;;;;21.96;59.40;100750.09;5016651;28;20462;-77
2022/07/25 05:19:24;;;;;;;4.53;1.92;;;;;;;22.01;59.66;100766.56;5034617;28;20040;-77
2022/07/25 05:21:50;;;;;;;6.65;1.92;;;;;;;22.02;60.32;100770.13;5034681;28;20061;-77
2022/07/25 05:24:15;;;;;;;4.13;1.73;;;;;;;22.04;61.20;100773.44;5016611;28;20029;-77
2022/07/25 05:26:41;;;;;;;2.60;1.63;;;;;;;22.16;61.48;100779.56;5016254;28;20021;-78
2022/07/25 05:29:06;;;;;;;4.72;1.83;;;;;;;22.16;63.28;100778.75;5016314;28;20435;-75
2022/07/25 05:31:31;;;;;;;4.28;1.90;;;;;;;22.09;64.38;100779.81;5034329;28;20034;-76
2022/07/25 05:33:57;;;;;;;6.15;2.05;;;;;;;22.10;64.91;100778.69;5034324;28;20021;-77
2022/07/25 05:36:22;;;;;;;5.10;1.73;;;;;;;22.12;65.38;100771.06;5016360;28;20466;-76
2022/07/25 05:38:47;;;;;;;6.65;2.17;;;;;;;22.10;66.25;100772.41;5017042;28;20033;-77
2022/07/25 05:41:13;;;;;;;7.35;2.03;;;;;;;22.14;67.04;100771.63;5034446;28;20025;-77
2022/07/25 05:43:38;;;;;;;6.00;2.08;;;;;;;22.07;67.79;100770.19;5034570;28;20049;-77
2022/07/25 05:46:04;;;;;;;10.27;2.30;;;;;;;21.89;68.73;100774.13;5036491;28;20058;-77
2022/07/25 05:48:30;;;;;;;7.50;1.98;;;;;;;21.87;69.00;100774.38;5036895;28;20033;-76
2022/07/25 05:50:58;;;;;;;9.13;2.33;;;;;;;21.70;69.93;100777.22;5039480;28;20378;-77
2022/07/25 05:53:24;;;;;;;9.70;1.98;;;;;;;21.76;70.06;100758.09;5039859;28;20025;-77
2022/07/25 05:55:49;;;;;;;9.13;1.95;;;;;;;21.72;70.52;100768.72;5007822;28;20160;-77
2022/07/25 05:58:14;;;;;;;10.65;2.00;;;;;;;21.63;70.99;100786.72;5028731;28;20033;-77
2022/07/25 06:00:40;;;;;;;6.47;1.98;;;;;;;21.56;71.40;100799.78;5043273;28;20100;-78
2022/07/25 06:03:05;;;;;;;8.60;1.90;;;;;;;21.59;71.63;100777.34;5040395;28;20481;-76
2022/07/25 06:05:30;;;;;;;11.30;2.10;;;;;;;21.63;72.60;100762.06;5019245;28;20181;-77
2022/07/25 06:07:56;;;;;;;10.95;2.30;;;;;;;21.60;73.89;100765.31;5034632;28;20021;-78
2022/07/25 06:10:21;;;;;;;11.60;2.00;;;;;;;21.43;74.35;100770.88;5016596;28;20061;-78
2022/07/25 06:12:46;;;;;;;6.95;2.05;;;;;;;21.40;75.54;100765.91;5016177;28;20033;-77
2022/07/25 06:15:12;;;;;;;10.40;2.22;;;;;;;21.27;76.19;100773.41;5033417;28;20358;-77
2022/07/25 06:17:38;;;;;;;8.93;2.17;;;;;;;21.24;76.16;100771.16;4999784;28;20037;-76
2022/07/25 06:20:04;;;;;;;11.80;1.70;;;;;;;21.22;75.94;100767.03;5017495;28;20026;-77
2022/07/25 06:22:30;;;;;;;10.23;1.58;;;;;;;21.27;76.64;100772.56;5035576;28;20033;-76
2022/07/25 06:24:56;;;;;;;4.53;1.73;;;;;;;21.32;75.93;100774.53;5036598;28;20033;-77
2022/07/25 06:27:21;;;;;;;7.32;1.80;;;;;;;21.31;75.53;100772.91;5035536;28;20026;-77
2022/07/25 06:29:46;;;;;;;14.07;1.90;;;;;;;21.35;75.89;100768.56;5038455;28;20064;-78
2022/07/25 06:32:12;;;;;;;12.52;1.77;;;;;;;21.33;75.50;100770.72;5017386;28;20029;-77
2022/07/25 06:34:37;;;;;;;5.63;1.90;;;;;;;21.38;75.40;100768.06;5034274;28;20369;-77
2022/07/25 06:37:03;;;;;;;11.00;2.83;;;;;;;21.42;75.12;100761.84;5017161;28;20128;-78
2022/07/25 06:39:28;;;;;;;9.90;1.70;;;;;;;21.47;74.62;100763.81;5033352;28;20061;-77
2022/07/25 06:41:54;;;;;;;8.73;2.38;;;;;;;21.47;74.35;100764.63;5016194;28;20563;-77
2022/07/25 06:44:19;;;;;;;8.07;1.80;;;;;;;21.50;74.31;100771.50;5033723;28;20042;-78
2022/07/25 06:46:44;;;;;;;9.75;2.00;;;;;;;21.54;73.94;100778.13;5018893;28;20040;-77
2022/07/25 06:49:10;;;;;;;5.28;1.60;;;;;;;21.57;74.06;100769.41;5035341;28;20079;-77
2022/07/25 06:51:35;;;;;;;8.93;1.73;;;;;;;21.59;74.02;100775.47;5033799;28;20037;-76
2022/07/25 06:54:00;;;;;;;6.53;1.83;;;;;;;21.61;73.41;100784.22;5016039;28;20049;-77
2022/07/25 06:56:30;;;;;;;14.30;2.13;;;;;;;21.64;73.85;100781.00;5015483;28;20021;-79
2022/07/25 06:58:55;;;;;;;13.15;1.92;;;;;;;21.69;73.79;100772.81;5015278;28;20068;-76
2022/07/25 07:01:21;;;;;;;6.68;2.20;;;;;;;21.57;74.08;100787.75;5030855;28;20061;-76
2022/07/25 07:03:47;;;;;;;9.75;2.15;;;;;;;21.56;74.18;100786.91;5015302;28;20374;-78
2022/07/25 07:06:12;;;;;;;8.18;1.98;;;;;;;21.60;74.48;100789.97;5033120;28;20029;-77
2022/07/25 07:08:38;;;;;;;8.75;1.90;;;;;;;21.52;74.73;100794.00;5032982;28;20462;-78
2022/07/25 07:11:05;;;;;;;6.65;1.70;;;;;;;21.59;74.46;100799.25;5015249;28;20048;-78
2022/07/25 07:13:30;;;;;;;8.40;2.03;;;;;;;21.61;74.41;100789.69;5032414;28;20022;-77
2022/07/25 07:15:56;;;;;;;12.27;2.28;;;;;;;21.50;74.67;100798.88;5032660;28;20390;-77
2022/07/25 07:18:21;;;;;;;9.63;2.38;;;;;;;21.61;74.38;100800.66;5034024;28;20044;-76
2022/07/25 07:20:47;;;;;;;8.15;1.90;;;;;;;22.17;73.26;100791.34;5014277;28;20021;-76
2022/07/25 07:23:13;;;;;;;8.95;2.20;;;;;;;22.41;70.62;100784.47;5033890;28;20087;-78
2022/07/25 07:25:39;;;;;;;8.48;2.00;;;;;;;22.42;70.05;100788.03;5035959;28;20465;-77
2022/07/25 07:28:04;;;;;;;6.25;1.77;;;;;;;22.42;70.34;100791.59;5034563;28;20068;-76
2022/07/25 07:30:30;;;;;;;14.77;2.20;;;;;;;22.49;69.93;100785.91;5032455;28;20037;-77
2022/07/25 07:32:56;;;;;;;11.60;2.22;;;;;;;22.72;68.55;100781.94;5031798;28;20024;-77
2022/07/25 07:35:22;;;;;;;4.72;1.65;;;;;;;22.58;67.69;100782.41;5031555;28;20049;-77
2022/07/25 07:37:47;;;;;;;7.50;1.80;;;;;;;22.51;69.25;100792.78;5014001;28;20056;-76
2022/07/25 07:40:14;;;;;;;9.90;2.70;;;;;;;23.42;68.25;100797.16;5014296;28;20429;-79
2022/07/25 07:42:41;;;;;;;5.57;1.77;;;;;;;24.75;63.22;100786.38;5033447;28;20018;-77
2022/07/25 07:45:25;;;;;;;;;;;;;;;26.12;57.48;100782.47;5016671;28;20716;-78
2022/07/25 07:47:53;;;;;;;8.27;1.80;;;;;;;26.56;55.54;100774.13;5032837;28;19913;-78
2022/07/25 07:50:21;;;;;;;9.25;1.67;;;;;;;26.25;55.17;100774.38;5013892;28;20060;-77
2022/07/25 07:52:47;;;;;;;5.80;1.58;;;;;;;26.66;55.07;100779.53;5018117;28;20043;-78
2022/07/25 07:57:59;;;;;;;9.25;2.17;;;;;;;27.33;51.00;100776.88;5017354;28;20476;-77
2022/07/25 08:00:34;;;;;;;9.95;2.10;;;;;;;27.80;50.88;100779.81;5014284;28;20026;-79
2022/07/25 08:03:00;;;;;;;11.38;2.22;;;;;;;27.83;50.01;100779.25;5013843;28;20033;-78
2022/07/25 08:05:29;;;;;;;11.23;1.90;;;;;;;27.65;50.67;100775.34;5014491;28;20512;-78
2022/07/25 08:07:54;;;;;;;6.53;2.05;;;;;;;27.02;51.38;100779.16;5032003;28;20021;-79
2022/07/25 08:10:22;;;;;;;9.38;1.98;;;;;;;27.91;50.29;100783.28;5032896;28;20116;-78
2022/07/25 08:12:47;;;;;;;7.80;1.90;;;;;;;28.52;49.48;100787.88;5015262;28;20026;-78
2022/07/25 08:15:13;;;;;;;7.28;2.00;;;;;;;29.14;47.35;100782.00;5033017;28;20048;-78
2022/07/25 08:17:38;;;;;;;6.47;2.10;;;;;;;28.90;46.36;100787.72;5032015;28;20061;-79
2022/07/25 08:20:07;;;;;;;9.10;2.28;;;;;;;27.00;50.22;100799.91;5015333;28;20031;-79
2022/07/25 08:22:44;;;;;;;9.23;2.10;;;;;;;26.58;52.65;100796.72;5031903;28;20188;-76
2022/07/25 08:25:13;;;;;;;5.93;2.15;;;;;;;26.41;52.56;100796.28;5031626;28;20033;-77
2022/07/25 08:27:38;;;;;;;10.98;2.50;;;;;;;26.14;53.93;100799.56;5031889;28;20029;-80
2022/07/25 08:30:07;;;;;;;6.43;1.80;;;;;;;25.84;54.80;100788.47;5031015;28;20024;-77
2022/07/25 08:32:33;;;;;;;8.80;2.10;;;;;;;25.82;54.94;100800.84;5034059;28;20026;-77
2022/07/25 08:35:00;;;;;;;13.00;2.33;;;;;;;25.95;54.61;100803.00;5016868;28;20370;-78
2022/07/25 08:37:26;;;;;;;10.30;2.15;;;;;;;25.63;54.64;100800.69;5034340;28;20038;-77
2022/07/25 08:39:51;;;;;;;14.48;2.47;;;;;;;25.08;56.62;100811.63;5040636;28;20026;-76
2022/07/25 08:42:19;;;;;;;20.27;3.00;;;;;;;25.01;57.55;100793.72;5019124;28;20029;-78
2022/07/25 08:45:05;;;;;;;16.25;2.95;;;;;;;24.25;60.09;100803.69;5019577;28;20052;-79
2022/07/25 08:47:31;;;;;;;10.35;2.30;;;;;;;23.61;61.57;100807.66;5021382;28;20590;-77
2022/07/25 08:49:57;;;;;;;16.00;2.35;;;;;;;23.49;62.02;100801.59;5038919;28;20049;-77
2022/07/25 08:52:22;;;;;;;18.15;2.97;;;;;;;23.61;61.52;100805.75;5035871;28;20029;-76
2022/07/25 08:54:49;;;;;;;13.80;2.30;;;;;;;23.71;61.06;100801.38;5037759;28;20037;-77
2022/07/25 08:57:14;;;;;;;14.00;2.67;;;;;;;23.85;61.80;100806.09;5040517;28;20040;-76
2022/07/25 08:59:42;;;;;;;14.77;2.90;;;;;;;23.88;61.07;100805.59;5044962;28;20021;-77
2022/07/25 09:02:09;;;;;;;15.70;2.60;;;;;;;23.91;60.53;100797.88;5047562;28;20029;-76
2022/07/25 09:04:35;;;;;;;9.82;2.47;;;;;;;23.81;61.45;100805.00;5035823;28;20087;-77
2022/07/25 09:07:03;;;;;;;10.25;2.58;;;;;;;23.99;61.53;100800.94;5017407;28;20444;-76
2022/07/25 09:09:34;;;;;;;17.77;2.85;;;;;;;23.88;60.52;100802.00;5018046;28;20484;-79
2022/07/25 09:12:00;;;;;;;20.55;3.08;;;;;;;23.53;61.08;100808.19;5017228;28;20091;-77
2022/07/25 09:14:25;;;;;;;17.50;3.15;;;;;;;23.51;61.87;100816.69;5034322;28;20422;-77
2022/07/25 09:16:52;;;;;;;16.42;2.90;;;;;;;23.52;61.81;100812.88;5034476;28;20036;-77
2022/07/25 09:19:23;;;;;;;18.33;3.40;;;;;;;23.43;62.18;100826.31;5035092;28;20036;-77
2022/07/25 09:22:04;;;;;;;15.88;3.13;;;;;;;23.24;62.08;100833.34;5034552;28;20025;-77
2022/07/25 09:24:31;;;;;;;13.27;3.05;;;;;;;23.42;61.16;100840.28;5034900;28;20026;-77
2022/07/25 09:26:59;;;;;;;16.35;3.28;;;;;;;24.18;59.43;100834.22;5017383;28;20029;-78
2022/07/25 09:29:28;;;;;;;11.98;2.92;;;;;;;24.97;56.65;100823.75;5016600;28;20030;-79
2022/07/25 09:31:55;;;;;;;10.82;2.65;;;;;;;25.45;55.68;100826.94;5016886;28;20072;-77
2022/07/25 09:34:41;;;;;;;10.65;2.85;;;;;;;25.16;53.77;100822.09;5034126;28;20563;-78
2022/07/25 09:37:09;;;;;;;17.05;3.55;;;;;;;25.52;53.88;100848.69;5033958;28;20069;-78
2022/07/25 09:39:44;;;;;;;15.18;3.10;;;;;;;25.74;53.01;100837.28;5016610;28;20440;-77
2022/07/25 09:42:30;;;;;;;11.60;2.70;;;;;;;25.87;53.20;100844.97;5035270;28;20469;-79
2022/07/25 09:45:05;;;;;;;11.98;3.03;;;;;;;26.17;52.17;100821.03;5001415;28;20039;-78
2022/07/25 09:47:34;;;;;;;19.27;3.40;;;;;;;26.30;52.34;100828.66;5034365;28;20517;-77
2022/07/25 09:50:01;;;;;;;27.73;3.05;;;;;;;27.01;50.11;100841.03;5034911;28;20124;-77
2022/07/25 09:52:27;;;;;;;13.13;3.10;;;;;;;26.91;48.75;100846.69;5034181;28;20033;-76
2022/07/25 09:54:56;;;;;;;20.17;3.33;;;;;;;27.00;49.52;100844.09;5034447;28;20485;-78
2022/07/25 09:57:24;;;;;;;17.45;3.60;;;;;;;25.39;52.52;100855.63;5035273;28;20051;-77
2022/07/25 09:59:50;;;;;;;19.25;3.33;;;;;;;24.47;54.80;100856.56;5001916;28;20033;-78
2022/07/25 10:02:40;;;;;;;20.30;3.70;;;;;;;24.19;56.95;100857.88;5035922;28;20028;-77
2022/07/25 10:05:08;;;;;;;17.70;3.47;;;;;;;24.27;55.06;100854.56;5034718;28;20031;-77
2022/07/25 10:07:37;;;;;;;16.95;3.47;;;;;;;24.61;55.86;100853.25;5034757;28;20033;-77
2022/07/25 10:10:04;;;;;;;25.80;3.90;;;;;;;24.90;54.39;100859.00;5034314;28;20029;-76
2022/07/25 10:12:29;;;;;;;25.57;3.57;;;;;;;25.04;54.08;100854.59;5021381;28;20064;-77
2022/07/25 10:15:10;;;;;;;18.90;3.78;;;;;;;24.79;54.66;100873.91;5019200;28;20367;-78
2022/07/25 10:17:37;;;;;;;18.95;3.80;;;;;;;24.63;54.60;100870.31;5018041;28;20623;-77
2022/07/25 10:20:05;;;;;;;17.08;3.38;;;;;;;24.19;54.73;100871.63;5034996;28;20040;-77
2022/07/25 10:22:44;;;;;;;20.55;4.18;;;;;;;23.70;56.85;100873.91;5037486;28;20037;-77
2022/07/25 10:25:20;;;;;;;16.92;3.70;;;;;;;23.67;57.72;100880.75;5033568;28;20068;-76
2022/07/25 10:27:51;;;;;;;22.42;3.45;;;;;;;23.79;57.12;100881.41;5016072;28;20136;-77
2022/07/25 10:30:22;;;;;;;17.58;3.40;;;;;;;23.80;56.21;100877.59;5034482;28;20420;-78
2022/07/25 10:33:03;;;;;;;16.60;3.28;;;;;;;23.82;56.51;100877.28;5033039;28;20021;-77
2022/07/25 10:35:28;;;;;;;14.88;3.67;;;;;;;24.13;55.39;100883.72;5015267;28;20057;-77
2022/07/25 10:37:55;;;;;;;13.43;3.00;;;;;;;24.39;54.80;100886.50;5015151;28;20030;-77
2022/07/25 10:40:48;;;;;;;12.88;3.15;;;;;;;24.37;55.06;100896.97;5015416;28;20033;-76
2022/07/25 10:43:17;;;;;;;22.17;3.40;;;;;;;24.75;54.94;100888.22;5031647;28;20026;-78
2022/07/25 10:45:47;;;;;;;15.00;3.63;;;;;;;24.16;55.31;100899.66;5033193;28;20034;-75
2022/07/25 10:48:21;;;;;;;17.40;3.25;;;;;;;23.32;58.03;100890.50;5031752;28;20044;-75
2022/07/25 10:50:48;;;;;;;15.82;2.95;;;;;;;23.30;58.64;100902.84;5033159;28;20025;-74
2022/07/25 10:53:14;;;;;;;23.02;3.90;;;;;;;23.21;59.83;100894.28;5033300;28;20078;-77
2022/07/25 10:55:40;;;;;;;20.42;3.20;;;;;;;23.28;59.37;100899.53;5013645;28;20093;-77
2022/07/25 10:58:06;;;;;;;17.40;4.00;;;;;;;23.15;59.07;100900.84;5032712;28;20082;-77
2022/07/25 11:00:32;;;;;;;23.05;4.35;;;;;;;22.82;59.55;100900.00;5034570;28;20021;-77
2022/07/25 11:02:58;;;;;;;21.15;3.60;;;;;;;22.79;60.29;100914.25;5018030;28;20079;-77
2022/07/25 11:05:24;;;;;;;18.08;3.42;;;;;;;22.86;60.82;100909.38;5033739;28;20033;-75
2022/07/25 11:07:51;;;;;;;26.17;3.85;;;;;;;23.04;59.28;100912.81;5015838;28;20440;-78
2022/07/25 11:10:25;;;;;;;14.00;3.10;;;;;;;22.83;59.00;100907.16;5033195;28;20377;-78
2022/07/25 11:12:51;;;;;;;21.98;3.35;;;;;;;22.78;59.60;100907.94;5033197;28;20056;-76
2022/07/25 11:15:22;;;;;;;22.63;3.60;;;;;;;22.43;59.93;100916.66;5015705;28;20030;-76
2022/07/25 11:17:54;;;;;;;12.77;3.30;;;;;;;22.26;59.61;100904.97;5033817;28;20025;-77
2022/07/25 11:20:20;;;;;;;11.80;3.40;;;;;;;22.44;59.55;100907.34;5032727;28;20029;-76
2022/07/25 11:22:53;;;;;;;15.70;2.78;;;;;;;22.04;57.65;100918.69;5034706;28;20100;-77